createdAt,value
2022-12-09T00:00:50.000Z,1002.1
2022-12-09T00:02:07.000Z,1002.1
2022-12-09T00:03:23.000Z,1002.1
2022-12-09T00:04:39.000Z,1002.1
2022-12-09T00:05:54.000Z,1002.1
2022-12-09T00:07:11.000Z,1002.2
2022-12-09T00:08:27.000Z,1002.1
2022-12-09T00:09:43.000Z,1002.1
2022-12-09T00:10:59.000Z,1002.1
2022-12-09T00:12:16.000Z,1002.1
2022-12-09T00:13:32.000Z,1002.2
2022-12-09T00:14:48.000Z,1002.1
2022-12-09T00:16:04.000Z,1002.2
2022-12-09T00:17:20.000Z,1002.2
2022-12-09T00:18:37.000Z,1002.2
2022-12-09T00:21:09.000Z,1002.1
2022-12-09T00:22:24.000Z,1002.2
2022-12-09T00:23:41.000Z,1002.2
2022-12-09T00:24:57.000Z,1002.2
2022-12-09T00:26:13.000Z,1002.2
2022-12-09T00:27:29.000Z,1002.2
2022-12-09T00:28:46.000Z,1002.3
2022-12-09T00:30:02.000Z,1002.2
2022-12-09T00:31:18.000Z,1002.2
2022-12-09T00:32:34.000Z,1002.2
2022-12-09T00:33:51.000Z,1002.2
2022-12-09T00:35:07.000Z,1002.2
2022-12-09T00:36:23.000Z,1002.2
2022-12-09T00:37:39.000Z,1002.2
2022-12-09T00:38:54.000Z,1002.2
2022-12-09T00:40:11.000Z,1002.2
2022-12-09T00:41:27.000Z,1002.3
2022-12-09T00:42:43.000Z,1002.3
2022-12-09T00:43:59.000Z,1002.2
2022-12-09T00:45:16.000Z,1002.3
2022-12-09T00:46:32.000Z,1002.3
2022-12-09T00:47:48.000Z,1002.2
2022-12-09T00:49:04.000Z,1002.2
2022-12-09T00:50:21.000Z,1002.2
2022-12-09T00:51:36.000Z,1002.3
2022-12-09T00:52:51.000Z,1002.2
2022-12-09T00:54:07.000Z,1002.3
2022-12-09T00:55:24.000Z,1002.3
2022-12-09T00:56:40.000Z,1002.3
2022-12-09T00:57:56.000Z,1002.2
2022-12-09T00:59:12.000Z,1002.2
2022-12-09T01:00:29.000Z,1002.2
2022-12-09T01:01:44.000Z,1002.2
2022-12-09T01:02:59.000Z,1002.2
2022-12-09T01:04:15.000Z,1002.3
2022-12-09T01:05:32.000Z,1002.2
2022-12-09T01:06:48.000Z,1002.2
2022-12-09T01:08:04.000Z,1002.2
2022-12-09T01:09:20.000Z,1002.2
2022-12-09T01:10:36.000Z,1002.1
2022-12-09T01:11:53.000Z,1002.1
2022-12-09T01:13:09.000Z,1002.2
2022-12-09T01:14:25.000Z,1002.2
2022-12-09T01:15:41.000Z,1002.2
2022-12-09T01:16:58.000Z,1002.2
2022-12-09T01:18:14.000Z,1002.2
2022-12-09T01:19:29.000Z,1002.2
2022-12-09T01:20:45.000Z,1002.2
2022-12-09T01:22:02.000Z,1002.3
2022-12-09T01:23:18.000Z,1002.2
2022-12-09T01:24:34.000Z,1002.3
2022-12-09T01:25:50.000Z,1002.2
2022-12-09T01:27:07.000Z,1002.2
2022-12-09T01:28:23.000Z,1002.3
2022-12-09T01:29:39.000Z,1002.3
2022-12-09T01:30:55.000Z,1002.3
2022-12-09T01:32:11.000Z,1002.3
2022-12-09T01:33:28.000Z,1002.3
2022-12-09T01:34:43.000Z,1002.3
2022-12-09T01:35:59.000Z,1002.3
2022-12-09T01:38:32.000Z,1002.3
2022-12-09T01:39:48.000Z,1002.3
2022-12-09T01:41:04.000Z,1002.3
2022-12-09T01:42:19.000Z,1002.3
2022-12-09T01:43:35.000Z,1002.2
2022-12-09T01:44:50.000Z,1002.3
2022-12-09T01:46:05.000Z,1002.3
2022-12-09T01:47:21.000Z,1002.3
2022-12-09T01:48:38.000Z,1002.3
2022-12-09T01:49:54.000Z,1002.3
2022-12-09T01:51:10.000Z,1002.3
2022-12-09T01:52:26.000Z,1002.3
2022-12-09T01:53:43.000Z,1002.3
2022-12-09T01:54:59.000Z,1002.3
2022-12-09T01:56:15.000Z,1002.3
2022-12-09T01:57:31.000Z,1002.3
2022-12-09T01:58:47.000Z,1002.2
2022-12-09T02:00:04.000Z,1002.3
2022-12-09T02:01:20.000Z,1002.2
2022-12-09T02:02:35.000Z,1002.2
2022-12-09T02:03:51.000Z,1002.2
2022-12-09T02:05:08.000Z,1002.2
2022-12-09T02:06:24.000Z,1002.3
2022-12-09T02:07:40.000Z,1002.3
2022-12-09T02:08:56.000Z,1002.2
2022-12-09T02:10:13.000Z,1002.3
2022-12-09T02:11:29.000Z,1002.2
2022-12-09T02:12:45.000Z,1002.2
2022-12-09T02:14:01.000Z,1002.2
2022-12-09T02:15:18.000Z,1002.1
2022-12-09T02:16:34.000Z,1002.1
2022-12-09T02:17:50.000Z,1002.1
2022-12-09T02:19:05.000Z,1002.1
2022-12-09T02:20:21.000Z,1002.1
2022-12-09T02:21:38.000Z,1002.1
2022-12-09T02:22:54.000Z,1002.1
2022-12-09T02:24:10.000Z,1002.1
2022-12-09T02:25:26.000Z,1002.1
2022-12-09T02:26:43.000Z,1002.1
2022-12-09T02:27:59.000Z,1002.1
2022-12-09T02:29:15.000Z,1002.1
2022-12-09T02:30:30.000Z,1002.1
2022-12-09T02:31:46.000Z,1002.1
2022-12-09T02:33:01.000Z,1002
2022-12-09T02:34:16.000Z,1002
2022-12-09T02:35:32.000Z,1002
2022-12-09T02:36:49.000Z,1002
2022-12-09T02:38:05.000Z,1002.1
2022-12-09T02:39:21.000Z,1002
2022-12-09T02:40:37.000Z,1002.1
2022-12-09T02:41:54.000Z,1002.1
2022-12-09T02:43:10.000Z,1002.1
2022-12-09T02:44:26.000Z,1002.1
2022-12-09T02:45:42.000Z,1002.1
2022-12-09T02:46:59.000Z,1002.1
2022-12-09T02:48:15.000Z,1002.1
2022-12-09T02:49:31.000Z,1002.1
2022-12-09T02:50:46.000Z,1002
2022-12-09T02:52:02.000Z,1002
2022-12-09T02:53:19.000Z,1002
2022-12-09T02:54:35.000Z,1002
2022-12-09T02:55:51.000Z,1001.9
2022-12-09T02:57:07.000Z,1002
2022-12-09T02:58:24.000Z,1001.9
2022-12-09T02:59:40.000Z,1001.9
2022-12-09T03:00:56.000Z,1002
2022-12-09T03:02:12.000Z,1001.9
2022-12-09T03:03:29.000Z,1001.9
2022-12-09T03:04:45.000Z,1001.9
2022-12-09T03:06:01.000Z,1001.9
2022-12-09T03:07:16.000Z,1001.8
2022-12-09T03:08:33.000Z,1001.8
2022-12-09T03:09:49.000Z,1001.8
2022-12-09T03:11:05.000Z,1001.9
2022-12-09T03:12:21.000Z,1001.8
2022-12-09T03:13:37.000Z,1001.8
2022-12-09T03:14:54.000Z,1001.8
2022-12-09T03:16:10.000Z,1001.7
2022-12-09T03:17:26.000Z,1001.7
2022-12-09T03:18:42.000Z,1001.7
2022-12-09T03:19:59.000Z,1001.7
2022-12-09T03:21:15.000Z,1001.7
2022-12-09T03:22:31.000Z,1001.8
2022-12-09T03:23:46.000Z,1001.7
2022-12-09T03:25:02.000Z,1001.8
2022-12-09T03:26:18.000Z,1001.8
2022-12-09T03:27:34.000Z,1001.8
2022-12-09T03:28:49.000Z,1001.7
2022-12-09T03:30:05.000Z,1001.7
2022-12-09T03:31:21.000Z,1001.7
2022-12-09T03:32:37.000Z,1001.8
2022-12-09T03:33:53.000Z,1001.8
2022-12-09T03:35:10.000Z,1001.7
2022-12-09T03:36:26.000Z,1001.8
2022-12-09T03:37:42.000Z,1001.7
2022-12-09T03:38:58.000Z,1001.7
2022-12-09T03:40:14.000Z,1001.7
2022-12-09T03:41:31.000Z,1001.7
2022-12-09T03:42:47.000Z,1001.8
2022-12-09T03:44:03.000Z,1001.7
2022-12-09T03:45:19.000Z,1001.8
2022-12-09T03:46:35.000Z,1001.7
2022-12-09T03:47:51.000Z,1001.8
2022-12-09T03:49:07.000Z,1001.7
2022-12-09T03:50:23.000Z,1001.7
2022-12-09T03:51:40.000Z,1001.7
2022-12-09T03:52:56.000Z,1001.7
2022-12-09T03:54:12.000Z,1001.7
2022-12-09T03:55:27.000Z,1001.7
2022-12-09T03:56:44.000Z,1001.7
2022-12-09T03:57:59.000Z,1001.7
2022-12-09T03:59:14.000Z,1001.6
2022-12-09T04:00:29.000Z,1001.7
2022-12-09T04:01:46.000Z,1001.7
2022-12-09T04:03:02.000Z,1001.6
2022-12-09T04:04:18.000Z,1001.6
2022-12-09T04:05:34.000Z,1001.6
2022-12-09T04:06:51.000Z,1001.6
2022-12-09T04:08:07.000Z,1001.6
2022-12-09T04:09:23.000Z,1001.6
2022-12-09T04:10:39.000Z,1001.6
2022-12-09T04:11:55.000Z,1001.6
2022-12-09T04:13:12.000Z,1001.6
2022-12-09T04:14:28.000Z,1001.6
2022-12-09T04:15:44.000Z,1001.6
2022-12-09T04:16:59.000Z,1001.6
2022-12-09T04:18:16.000Z,1001.6
2022-12-09T04:19:32.000Z,1001.6
2022-12-09T04:20:48.000Z,1001.6
2022-12-09T04:22:04.000Z,1001.6
2022-12-09T04:23:21.000Z,1001.6
2022-12-09T04:24:37.000Z,1001.5
2022-12-09T04:25:53.000Z,1001.7
2022-12-09T04:27:09.000Z,1001.6
2022-12-09T04:28:26.000Z,1001.6
2022-12-09T04:29:42.000Z,1001.6
2022-12-09T04:30:58.000Z,1001.6
2022-12-09T04:32:14.000Z,1001.6
2022-12-09T04:33:29.000Z,1001.5
2022-12-09T04:34:46.000Z,1001.5
2022-12-09T04:36:02.000Z,1001.6
2022-12-09T04:37:17.000Z,1001.5
2022-12-09T04:38:32.000Z,1001.5
2022-12-09T04:39:48.000Z,1001.5
2022-12-09T04:41:03.000Z,1001.5
2022-12-09T04:42:19.000Z,1001.5
2022-12-09T04:43:35.000Z,1001.5
2022-12-09T04:44:52.000Z,1001.5
2022-12-09T04:46:08.000Z,1001.5
2022-12-09T04:47:24.000Z,1001.5
2022-12-09T04:48:40.000Z,1001.4
2022-12-09T04:49:57.000Z,1001.4
2022-12-09T04:51:13.000Z,1001.4
2022-12-09T04:52:29.000Z,1001.5
2022-12-09T04:53:45.000Z,1001.5
2022-12-09T04:55:02.000Z,1001.5
2022-12-09T04:56:18.000Z,1001.5
2022-12-09T04:57:33.000Z,1001.5
2022-12-09T04:58:49.000Z,1001.5
2022-12-09T05:00:06.000Z,1001.5
2022-12-09T05:01:22.000Z,1001.5
2022-12-09T05:02:38.000Z,1001.5
2022-12-09T05:03:54.000Z,1001.5
2022-12-09T05:05:10.000Z,1001.5
2022-12-09T05:06:27.000Z,1001.5
2022-12-09T05:07:43.000Z,1001.4
2022-12-09T05:08:59.000Z,1001.4
2022-12-09T05:10:15.000Z,1001.4
2022-12-09T05:11:32.000Z,1001.5
2022-12-09T05:12:48.000Z,1001.5
2022-12-09T05:14:03.000Z,1001.5
2022-12-09T05:15:19.000Z,1001.4
2022-12-09T05:16:36.000Z,1001.5
2022-12-09T05:17:52.000Z,1001.5
2022-12-09T05:19:08.000Z,1001.5
2022-12-09T05:20:24.000Z,1001.5
2022-12-09T05:21:41.000Z,1001.5
2022-12-09T05:22:57.000Z,1001.5
2022-12-09T05:24:13.000Z,1001.5
2022-12-09T05:26:45.000Z,1001.4
2022-12-09T05:28:02.000Z,1001.5
2022-12-09T05:29:18.000Z,1001.5
2022-12-09T05:30:33.000Z,1001.4
2022-12-09T05:31:49.000Z,1001.5
2022-12-09T05:33:06.000Z,1001.5
2022-12-09T05:34:22.000Z,1001.5
2022-12-09T05:35:38.000Z,1001.4
2022-12-09T05:36:54.000Z,1001.4
2022-12-09T05:38:11.000Z,1001.4
2022-12-09T05:39:27.000Z,1001.4
2022-12-09T05:40:43.000Z,1001.4
2022-12-09T05:41:59.000Z,1001.4
2022-12-09T05:43:16.000Z,1001.5
2022-12-09T05:44:32.000Z,1001.4
2022-12-09T05:45:48.000Z,1001.4
2022-12-09T05:47:03.000Z,1001.4
2022-12-09T05:48:19.000Z,1001.4
2022-12-09T05:49:35.000Z,1001.4
2022-12-09T05:50:51.000Z,1001.4
2022-12-09T05:52:07.000Z,1001.4
2022-12-09T05:53:23.000Z,1001.4
2022-12-09T05:54:40.000Z,1001.4
2022-12-09T05:55:56.000Z,1001.5
2022-12-09T05:57:12.000Z,1001.4
2022-12-09T05:58:28.000Z,1001.4
2022-12-09T05:59:45.000Z,1001.4
2022-12-09T06:01:01.000Z,1001.4
2022-12-09T06:02:17.000Z,1001.4
2022-12-09T06:03:33.000Z,1001.4
2022-12-09T06:04:50.000Z,1001.4
2022-12-09T06:07:21.000Z,1001.5
2022-12-09T06:08:37.000Z,1001.4
2022-12-09T06:09:53.000Z,1001.5
2022-12-09T06:11:10.000Z,1001.4
2022-12-09T06:12:26.000Z,1001.4
2022-12-09T06:13:42.000Z,1001.4
2022-12-09T06:14:58.000Z,1001.4
2022-12-09T06:16:15.000Z,1001.4
2022-12-09T06:17:31.000Z,1001.5
2022-12-09T06:18:47.000Z,1001.5
2022-12-09T06:20:03.000Z,1001.5
2022-12-09T06:21:20.000Z,1001.5
2022-12-09T06:22:35.000Z,1001.4
2022-12-09T06:23:51.000Z,1001.4
2022-12-09T06:25:07.000Z,1001.4
2022-12-09T06:26:24.000Z,1001.5
2022-12-09T06:27:40.000Z,1001.4
2022-12-09T06:28:56.000Z,1001.4
2022-12-09T06:30:12.000Z,1001.5
2022-12-09T06:31:28.000Z,1001.5
2022-12-09T06:32:45.000Z,1001.4
2022-12-09T06:34:01.000Z,1001.4
2022-12-09T06:35:17.000Z,1001.4
2022-12-09T06:36:33.000Z,1001.5
2022-12-09T06:37:50.000Z,1001.4
2022-12-09T06:39:05.000Z,1001.5
2022-12-09T06:40:21.000Z,1001.4
2022-12-09T06:41:37.000Z,1001.4
2022-12-09T06:42:54.000Z,1001.4
2022-12-09T06:44:10.000Z,1001.4
2022-12-09T06:45:26.000Z,1001.4
2022-12-09T06:46:42.000Z,1001.4
2022-12-09T06:47:59.000Z,1001.4
2022-12-09T06:49:15.000Z,1001.4
2022-12-09T06:50:31.000Z,1001.4
2022-12-09T06:51:47.000Z,1001.4
2022-12-09T06:53:03.000Z,1001.3
2022-12-09T06:54:20.000Z,1001.4
2022-12-09T06:55:35.000Z,1001.4
2022-12-09T06:56:51.000Z,1001.4
2022-12-09T06:58:07.000Z,1001.4
2022-12-09T06:59:24.000Z,1001.4
2022-12-09T07:00:40.000Z,1001.5
2022-12-09T07:01:56.000Z,1001.4
2022-12-09T07:03:12.000Z,1001.4
2022-12-09T07:04:29.000Z,1001.4
2022-12-09T07:05:45.000Z,1001.5
2022-12-09T07:07:01.000Z,1001.5
2022-12-09T07:08:17.000Z,1001.5
2022-12-09T07:10:50.000Z,1001.5
2022-12-09T07:12:05.000Z,1001.4
2022-12-09T07:13:21.000Z,1001.5
2022-12-09T07:14:38.000Z,1001.5
2022-12-09T07:15:54.000Z,1001.5
2022-12-09T07:17:10.000Z,1001.5
2022-12-09T07:18:26.000Z,1001.5
2022-12-09T07:19:42.000Z,1001.6
2022-12-09T07:20:59.000Z,1001.6
2022-12-09T07:22:15.000Z,1001.6
2022-12-09T07:23:31.000Z,1001.6
2022-12-09T07:24:47.000Z,1001.6
2022-12-09T07:26:04.000Z,1001.7
2022-12-09T07:27:20.000Z,1001.7
2022-12-09T07:28:35.000Z,1001.6
2022-12-09T07:29:51.000Z,1001.6
2022-12-09T07:31:08.000Z,1001.7
2022-12-09T07:32:24.000Z,1001.6
2022-12-09T07:33:40.000Z,1001.6
2022-12-09T07:36:13.000Z,1001.6
2022-12-09T07:37:29.000Z,1001.6
2022-12-09T07:38:45.000Z,1001.7
2022-12-09T07:40:01.000Z,1001.7
2022-12-09T07:41:17.000Z,1001.7
2022-12-09T07:42:34.000Z,1001.7
2022-12-09T07:43:50.000Z,1001.6
2022-12-09T07:45:06.000Z,1001.7
2022-12-09T07:46:21.000Z,1001.7
2022-12-09T07:47:38.000Z,1001.7
2022-12-09T07:48:54.000Z,1001.7
2022-12-09T07:50:10.000Z,1001.8
2022-12-09T07:51:26.000Z,1001.7
2022-12-09T07:52:43.000Z,1001.7
2022-12-09T07:53:59.000Z,1001.7
2022-12-09T07:55:15.000Z,1001.7
2022-12-09T07:56:31.000Z,1001.7
2022-12-09T07:57:48.000Z,1001.7
2022-12-09T07:59:04.000Z,1001.8
2022-12-09T08:00:20.000Z,1001.8
2022-12-09T08:01:36.000Z,1001.8
2022-12-09T08:02:52.000Z,1001.8
2022-12-09T08:04:08.000Z,1001.8
2022-12-09T08:05:24.000Z,1001.8
2022-12-09T08:06:40.000Z,1001.8
2022-12-09T08:07:56.000Z,1001.9
2022-12-09T08:09:13.000Z,1001.8
2022-12-09T08:10:29.000Z,1001.8
2022-12-09T08:11:45.000Z,1001.7
2022-12-09T08:13:01.000Z,1001.8
2022-12-09T08:14:18.000Z,1001.7
2022-12-09T08:15:34.000Z,1001.7
2022-12-09T08:16:50.000Z,1001.8
2022-12-09T08:18:06.000Z,1001.8
2022-12-09T08:19:23.000Z,1001.8
2022-12-09T08:20:38.000Z,1001.9
2022-12-09T08:21:54.000Z,1001.9
2022-12-09T08:23:10.000Z,1001.8
2022-12-09T08:24:26.000Z,1001.8
2022-12-09T08:25:43.000Z,1001.8
2022-12-09T08:26:59.000Z,1001.8
2022-12-09T08:28:15.000Z,1001.7
2022-12-09T08:29:31.000Z,1001.8
2022-12-09T08:30:48.000Z,1001.8
2022-12-09T08:32:04.000Z,1001.8
2022-12-09T08:33:20.000Z,1001.8
2022-12-09T08:34:36.000Z,1001.8
2022-12-09T08:35:53.000Z,1001.8
2022-12-09T08:37:08.000Z,1001.8
2022-12-09T08:38:24.000Z,1001.8
2022-12-09T08:39:40.000Z,1001.8
2022-12-09T08:40:57.000Z,1001.8
2022-12-09T08:42:13.000Z,1001.8
2022-12-09T08:43:29.000Z,1001.8
2022-12-09T08:44:45.000Z,1001.8
2022-12-09T08:46:01.000Z,1001.8
2022-12-09T08:47:18.000Z,1001.8
2022-12-09T08:48:34.000Z,1001.8
2022-12-09T08:49:50.000Z,1001.8
2022-12-09T08:51:06.000Z,1001.8
2022-12-09T08:52:23.000Z,1001.8
2022-12-09T08:53:38.000Z,1001.8
2022-12-09T08:54:54.000Z,1001.8
2022-12-09T08:56:10.000Z,1001.8
2022-12-09T08:57:27.000Z,1001.8
2022-12-09T08:59:59.000Z,1001.8
2022-12-09T09:01:15.000Z,1001.9
2022-12-09T09:02:32.000Z,1001.8
2022-12-09T09:03:48.000Z,1001.8
2022-12-09T09:05:04.000Z,1001.9
2022-12-09T09:06:20.000Z,1001.8
2022-12-09T09:07:36.000Z,1001.9
2022-12-09T09:08:53.000Z,1001.8
2022-12-09T09:10:09.000Z,1001.9
2022-12-09T09:12:41.000Z,1001.9
2022-12-09T09:13:58.000Z,1001.9
2022-12-09T09:15:13.000Z,1001.9
2022-12-09T09:16:29.000Z,1001.9
2022-12-09T09:17:45.000Z,1001.9
2022-12-09T09:19:02.000Z,1002
2022-12-09T09:20:18.000Z,1002
2022-12-09T09:21:34.000Z,1002
2022-12-09T09:22:50.000Z,1001.9
2022-12-09T09:24:07.000Z,1002
2022-12-09T09:25:23.000Z,1001.9
2022-12-09T09:26:39.000Z,1002
2022-12-09T09:27:55.000Z,1002
2022-12-09T09:29:11.000Z,1002
2022-12-09T09:30:28.000Z,1001.9
2022-12-09T09:31:43.000Z,1001.9
2022-12-09T09:32:59.000Z,1001.9
2022-12-09T09:34:15.000Z,1001.8
2022-12-09T09:35:32.000Z,1001.9
2022-12-09T09:38:04.000Z,1001.9
2022-12-09T09:39:20.000Z,1002
2022-12-09T09:40:37.000Z,1002
2022-12-09T09:41:53.000Z,1002
2022-12-09T09:43:09.000Z,1002
2022-12-09T09:44:25.000Z,1001.9
2022-12-09T09:45:42.000Z,1002
2022-12-09T09:46:58.000Z,1002
2022-12-09T09:48:13.000Z,1002
2022-12-09T09:49:29.000Z,1002
2022-12-09T09:50:45.000Z,1002
2022-12-09T09:52:02.000Z,1002
2022-12-09T09:53:18.000Z,1002
2022-12-09T09:54:34.000Z,1002
2022-12-09T09:55:50.000Z,1002
2022-12-09T09:57:07.000Z,1002
2022-12-09T09:58:23.000Z,1002
2022-12-09T09:59:39.000Z,1002
2022-12-09T10:00:55.000Z,1001.9
2022-12-09T10:02:12.000Z,1001.9
2022-12-09T10:04:44.000Z,1001.9
2022-12-09T10:05:59.000Z,1001.9
2022-12-09T10:07:16.000Z,1001.9
2022-12-09T10:08:32.000Z,1001.9
2022-12-09T10:09:48.000Z,1001.9
2022-12-09T10:11:04.000Z,1001.9
2022-12-09T10:12:20.000Z,1001.8
2022-12-09T10:13:37.000Z,1001.8
2022-12-09T10:14:53.000Z,1001.8
2022-12-09T10:16:09.000Z,1001.8
2022-12-09T10:17:25.000Z,1001.8
2022-12-09T10:18:42.000Z,1001.9
2022-12-09T10:21:14.000Z,1001.8
2022-12-09T10:22:29.000Z,1001.8
2022-12-09T10:23:46.000Z,1001.8
2022-12-09T10:25:02.000Z,1001.8
2022-12-09T10:26:18.000Z,1001.8
2022-12-09T10:27:34.000Z,1001.8
2022-12-09T10:28:51.000Z,1001.8
2022-12-09T10:30:07.000Z,1001.8
2022-12-09T10:31:23.000Z,1001.7
2022-12-09T10:32:39.000Z,1001.8
2022-12-09T10:33:55.000Z,1001.7
2022-12-09T10:35:12.000Z,1001.8
2022-12-09T10:36:28.000Z,1001.7
2022-12-09T10:37:44.000Z,1001.7
2022-12-09T10:38:59.000Z,1001.7
2022-12-09T10:40:16.000Z,1001.7
2022-12-09T10:41:32.000Z,1001.7
2022-12-09T10:42:48.000Z,1001.7
2022-12-09T10:44:04.000Z,1001.7
2022-12-09T10:45:21.000Z,1001.8
2022-12-09T10:46:37.000Z,1001.8
2022-12-09T10:47:53.000Z,1001.8
2022-12-09T10:49:09.000Z,1001.7
2022-12-09T10:50:26.000Z,1001.7
2022-12-09T10:51:42.000Z,1001.7
2022-12-09T10:52:58.000Z,1001.7
2022-12-09T10:54:14.000Z,1001.7
2022-12-09T10:55:30.000Z,1001.7
2022-12-09T10:56:46.000Z,1001.7
2022-12-09T10:58:02.000Z,1001.7
2022-12-09T10:59:18.000Z,1001.7
2022-12-09T11:00:34.000Z,1001.7
2022-12-09T11:01:51.000Z,1001.7
2022-12-09T11:03:07.000Z,1001.6
2022-12-09T11:04:23.000Z,1001.7
2022-12-09T11:05:39.000Z,1001.7
2022-12-09T11:06:56.000Z,1001.6
2022-12-09T11:08:12.000Z,1001.6
2022-12-09T11:09:28.000Z,1001.7
2022-12-09T11:10:44.000Z,1001.6
2022-12-09T11:12:01.000Z,1001.6
2022-12-09T11:13:16.000Z,1001.6
2022-12-09T11:14:32.000Z,1001.6
2022-12-09T11:15:48.000Z,1001.5
2022-12-09T11:17:05.000Z,1001.6
2022-12-09T11:19:37.000Z,1001.5
2022-12-09T11:20:53.000Z,1001.5
2022-12-09T11:22:09.000Z,1001.5
2022-12-09T11:23:26.000Z,1001.4
2022-12-09T11:24:42.000Z,1001.5
2022-12-09T11:25:58.000Z,1001.5
2022-12-09T11:27:14.000Z,1001.4
2022-12-09T11:28:31.000Z,1001.5
2022-12-09T11:29:46.000Z,1001.5
2022-12-09T11:31:02.000Z,1001.5
2022-12-09T11:32:18.000Z,1001.5
2022-12-09T11:33:35.000Z,1001.5
2022-12-09T11:34:51.000Z,1001.4
2022-12-09T11:36:07.000Z,1001.4
2022-12-09T11:37:23.000Z,1001.4
2022-12-09T11:38:40.000Z,1001.4
2022-12-09T11:39:56.000Z,1001.4
2022-12-09T11:41:12.000Z,1001.3
2022-12-09T11:42:28.000Z,1001.4
2022-12-09T11:43:44.000Z,1001.4
2022-12-09T11:45:01.000Z,1001.3
2022-12-09T11:46:16.000Z,1001.4
2022-12-09T11:48:48.000Z,1001.4
2022-12-09T11:50:05.000Z,1001.4
2022-12-09T11:51:21.000Z,1001.4
2022-12-09T11:52:37.000Z,1001.4
2022-12-09T11:53:53.000Z,1001.3
2022-12-09T11:55:10.000Z,1001.3
2022-12-09T11:56:26.000Z,1001.4
2022-12-09T11:57:42.000Z,1001.3
2022-12-09T11:58:58.000Z,1001.3
2022-12-09T12:00:14.000Z,1001.4
2022-12-09T12:01:31.000Z,1001.3
2022-12-09T12:02:46.000Z,1001.3
2022-12-09T12:04:02.000Z,1001.3
2022-12-09T12:05:18.000Z,1001.3
2022-12-09T12:06:35.000Z,1001.2
2022-12-09T12:07:51.000Z,1001.2
2022-12-09T12:09:07.000Z,1001.2
2022-12-09T12:10:23.000Z,1001.2
2022-12-09T12:11:40.000Z,1001.2
2022-12-09T12:12:56.000Z,1001.2
2022-12-09T12:14:12.000Z,1001.2
2022-12-09T12:15:28.000Z,1001.2
2022-12-09T12:16:45.000Z,1001.1
2022-12-09T12:18:01.000Z,1001.1
2022-12-09T12:19:16.000Z,1001.1
2022-12-09T12:20:32.000Z,1001.1
2022-12-09T12:21:49.000Z,1001.1
2022-12-09T12:23:05.000Z,1001.1
2022-12-09T12:24:21.000Z,1001.2
2022-12-09T12:25:37.000Z,1001.1
2022-12-09T12:26:53.000Z,1001.1
2022-12-09T12:28:10.000Z,1001.2
2022-12-09T12:29:26.000Z,1001.2
2022-12-09T12:30:42.000Z,1001.2
2022-12-09T12:31:58.000Z,1001.2
2022-12-09T12:33:15.000Z,1001.2
2022-12-09T12:34:31.000Z,1001.1
2022-12-09T12:35:46.000Z,1001.2
2022-12-09T12:38:19.000Z,1001.2
2022-12-09T12:39:35.000Z,1001.2
2022-12-09T12:40:51.000Z,1001.2
2022-12-09T12:42:07.000Z,1001.2
2022-12-09T12:43:24.000Z,1001.3
2022-12-09T12:44:40.000Z,1001.2
2022-12-09T12:45:56.000Z,1001.2
2022-12-09T12:47:12.000Z,1001.3
2022-12-09T12:48:28.000Z,1001.2
2022-12-09T12:49:45.000Z,1001.3
2022-12-09T12:51:01.000Z,1001.2
2022-12-09T12:52:16.000Z,1001.3
2022-12-09T12:53:32.000Z,1001.3
2022-12-09T12:54:49.000Z,1001.2
2022-12-09T12:56:05.000Z,1001.1
2022-12-09T12:57:21.000Z,1001.1
2022-12-09T12:58:37.000Z,1001.1
2022-12-09T12:59:54.000Z,1001.1
2022-12-09T13:01:10.000Z,1001.1
2022-12-09T13:02:26.000Z,1001.1
2022-12-09T13:03:42.000Z,1001.1
2022-12-09T13:04:59.000Z,1001.1
2022-12-09T13:06:15.000Z,1001.1
2022-12-09T13:07:31.000Z,1001
2022-12-09T13:08:46.000Z,1001.1
2022-12-09T13:10:02.000Z,1001.1
2022-12-09T13:12:35.000Z,1001.1
2022-12-09T13:13:51.000Z,1001.1
2022-12-09T13:16:24.000Z,1001.1
2022-12-09T13:17:40.000Z,1001.1
2022-12-09T13:18:56.000Z,1001.1
2022-12-09T13:20:12.000Z,1001.1
2022-12-09T13:21:29.000Z,1001.1
2022-12-09T13:22:45.000Z,1001.1
2022-12-09T13:24:01.000Z,1001.1
2022-12-09T13:26:33.000Z,1001.1
2022-12-09T13:27:48.000Z,1001.2
2022-12-09T13:29:03.000Z,1001.2
2022-12-09T13:30:19.000Z,1001.2
2022-12-09T13:31:36.000Z,1001.1
2022-12-09T13:32:52.000Z,1001.1
2022-12-09T13:34:08.000Z,1001.2
2022-12-09T13:35:24.000Z,1001.1
2022-12-09T13:36:40.000Z,1001.1
2022-12-09T13:37:57.000Z,1001.1
2022-12-09T13:39:13.000Z,1001.1
2022-12-09T13:40:29.000Z,1001.2
2022-12-09T13:41:44.000Z,1001.2
2022-12-09T13:43:00.000Z,1001.2
2022-12-09T13:44:16.000Z,1001.1
2022-12-09T13:45:32.000Z,1001.2
2022-12-09T13:46:48.000Z,1001.3
2022-12-09T13:48:05.112Z,1001.2
2022-12-09T13:49:21.000Z,1001.2
2022-12-09T13:50:37.000Z,1001.3
2022-12-09T13:51:53.000Z,1001.3
2022-12-09T13:53:10.000Z,1001.3
2022-12-09T13:54:26.000Z,1001.3
2022-12-09T13:55:42.000Z,1001.3
2022-12-09T13:56:58.000Z,1001.3
2022-12-09T13:58:14.000Z,1001.2
2022-12-09T13:59:30.000Z,1001.3
2022-12-09T14:00:46.000Z,1001.2
2022-12-09T14:02:02.000Z,1001.2
2022-12-09T14:03:18.000Z,1001.2
2022-12-09T14:04:35.000Z,1001.1
2022-12-09T14:05:51.000Z,1001.1
2022-12-09T14:07:07.000Z,1001.2
2022-12-09T14:08:23.000Z,1001.1
2022-12-09T14:09:40.000Z,1001.1
2022-12-09T14:10:56.000Z,1001.1
2022-12-09T14:12:12.000Z,1001.1
2022-12-09T14:13:28.000Z,1001
2022-12-09T14:14:45.000Z,1001
2022-12-09T14:16:00.000Z,1001.1
2022-12-09T14:17:16.000Z,1001.1
2022-12-09T14:18:32.000Z,1001.1
2022-12-09T14:19:48.000Z,1001.1
2022-12-09T14:21:04.000Z,1001.1
2022-12-09T14:22:20.000Z,1001.1
2022-12-09T14:23:36.000Z,1001.1
2022-12-09T14:24:52.000Z,1001.1
2022-12-09T14:26:09.000Z,1001.2
2022-12-09T14:27:25.000Z,1001.1
2022-12-09T14:28:41.000Z,1001.2
2022-12-09T14:29:57.000Z,1001.2
2022-12-09T14:31:14.000Z,1001.2
2022-12-09T14:32:30.000Z,1001.2
2022-12-09T14:33:46.000Z,1001.2
2022-12-09T14:35:02.000Z,1001.3
2022-12-09T14:36:19.000Z,1001.3
2022-12-09T14:37:34.000Z,1001.3
2022-12-09T14:38:50.000Z,1001.3
2022-12-09T14:40:06.000Z,1001.2
2022-12-09T14:41:23.000Z,1001.2
2022-12-09T14:42:39.000Z,1001.2
2022-12-09T14:43:55.000Z,1001.3
2022-12-09T14:45:11.000Z,1001.2
2022-12-09T14:46:27.000Z,1001.2
2022-12-09T14:47:44.000Z,1001.2
2022-12-09T14:49:00.000Z,1001.3
2022-12-09T14:50:16.000Z,1001.3
2022-12-09T14:51:32.000Z,1001.4
2022-12-09T14:52:49.000Z,1001.4
2022-12-09T14:54:04.000Z,1001.4
2022-12-09T14:55:20.000Z,1001.4
2022-12-09T14:56:36.000Z,1001.3
2022-12-09T14:57:53.000Z,1001.3
2022-12-09T14:59:09.000Z,1001.4
2022-12-09T15:00:25.000Z,1001.3
2022-12-09T15:01:41.000Z,1001.3
2022-12-09T15:02:58.000Z,1001.3
2022-12-09T15:04:14.000Z,1001.3
2022-12-09T15:05:30.000Z,1001.4
2022-12-09T15:06:46.000Z,1001.4
2022-12-09T15:08:02.000Z,1001.4
2022-12-09T15:09:19.000Z,1001.4
2022-12-09T15:10:34.000Z,1001.4
2022-12-09T15:11:50.000Z,1001.5
2022-12-09T15:13:06.000Z,1001.4
2022-12-09T15:14:23.000Z,1001.4
2022-12-09T15:15:39.000Z,1001.5
2022-12-09T15:16:55.000Z,1001.4
2022-12-09T15:18:11.000Z,1001.5
2022-12-09T15:19:28.000Z,1001.5
2022-12-09T15:20:44.000Z,1001.5
2022-12-09T15:22:00.000Z,1001.5
2022-12-09T15:24:33.000Z,1001.5
2022-12-09T15:25:49.000Z,1001.5
2022-12-09T15:27:04.000Z,1001.5
2022-12-09T15:28:20.000Z,1001.5
2022-12-09T15:29:36.000Z,1001.4
2022-12-09T15:30:53.000Z,1001.5
2022-12-09T15:32:09.000Z,1001.4
2022-12-09T15:33:25.000Z,1001.5
2022-12-09T15:34:41.000Z,1001.5
2022-12-09T15:35:58.000Z,1001.4
2022-12-09T15:37:14.000Z,1001.4
2022-12-09T15:38:30.000Z,1001.5
2022-12-09T15:39:46.000Z,1001.4
2022-12-09T15:41:03.000Z,1001.5
2022-12-09T15:43:35.000Z,1001.4
2022-12-09T15:44:50.000Z,1001.5
2022-12-09T15:46:07.000Z,1001.5
2022-12-09T15:47:23.000Z,1001.4
2022-12-09T15:48:39.000Z,1001.5
2022-12-09T15:49:55.000Z,1001.5
2022-12-09T15:51:11.000Z,1001.5
2022-12-09T15:52:28.000Z,1001.6
2022-12-09T15:53:44.000Z,1001.5
2022-12-09T15:55:00.000Z,1001.6
2022-12-09T15:56:16.000Z,1001.6
2022-12-09T15:57:33.000Z,1001.6
2022-12-09T15:58:49.000Z,1001.7
2022-12-09T16:00:05.000Z,1001.7
2022-12-09T16:01:20.000Z,1001.6
2022-12-09T16:02:37.000Z,1001.6
2022-12-09T16:03:53.000Z,1001.6
2022-12-09T16:05:09.000Z,1001.6
2022-12-09T16:06:25.000Z,1001.6
2022-12-09T16:07:42.000Z,1001.6
2022-12-09T16:08:58.000Z,1001.6
2022-12-09T16:10:14.000Z,1001.6
2022-12-09T16:12:46.000Z,1001.7
2022-12-09T16:14:03.000Z,1001.6
2022-12-09T16:15:19.000Z,1001.6
2022-12-09T16:16:35.000Z,1001.6
2022-12-09T16:17:50.000Z,1001.7